sensor_id;sensor_type;location;lat;lon;timestamp;P1;durP1;ratioP1;P2;durP2;ratioP2
44728;SDS011;30457;53.590;9.922;2022-08-02T00:03:08;1.55;;;0.90;;
44728;SDS011;30457;53.590;9.922;2022-08-02T00:07:34;2.47;;;0.73;;
44728;SDS011;30457;53.590;9.922;2022-08-02T00:12:00;3.75;;;0.85;;
44728;SDS011;30457;53.590;9.922;2022-08-02T00:16:26;3.50;;;1.02;;
44728;SDS011;30457;53.590;9.922;2022-08-02T00:20:51;1.45;;;0.90;;
44728;SDS011;30457;53.590;9.922;2022-08-02T00:25:17;0.90;;;0.80;;
44728;SDS011;30457;53.590;9.922;2022-08-02T00:29:42;2.10;;;1.30;;
44728;SDS011;30457;53.590;9.922;2022-08-02T00:34:08;1.40;;;0.80;;
44728;SDS011;30457;53.590;9.922;2022-08-02T00:38:33;2.30;;;0.80;;
44728;SDS011;30457;53.590;9.922;2022-08-02T00:43:06;3.13;;;0.90;;
44728;SDS011;30457;53.590;9.922;2022-08-02T00:47:34;3.30;;;1.00;;
44728;SDS011;30457;53.590;9.922;2022-08-02T00:51:59;3.17;;;1.00;;
44728;SDS011;30457;53.590;9.922;2022-08-02T00:56:25;1.75;;;0.85;;
44728;SDS011;30457;53.590;9.922;2022-08-02T01:00:51;2.40;;;0.85;;
44728;SDS011;30457;53.590;9.922;2022-08-02T01:05:17;1.17;;;1.00;;
44728;SDS011;30457;53.590;9.922;2022-08-02T01:09:43;1.48;;;0.80;;
44728;SDS011;30457;53.590;9.922;2022-08-02T01:14:11;2.65;;;0.70;;
44728;SDS011;30457;53.590;9.922;2022-08-02T01:18:39;3.22;;;0.90;;
44728;SDS011;30457;53.590;9.922;2022-08-02T01:32:51;1.98;;;0.80;;
44728;SDS011;30457;53.590;9.922;2022-08-02T01:37:30;1.75;;;0.90;;
44728;SDS011;30457;53.590;9.922;2022-08-02T01:42:01;6.07;;;2.30;;
44728;SDS011;30457;53.590;9.922;2022-08-02T01:46:29;2.50;;;1.17;;
44728;SDS011;30457;53.590;9.922;2022-08-02T01:50:56;2.47;;;1.13;;
44728;SDS011;30457;53.590;9.922;2022-08-02T01:55:25;2.67;;;1.05;;
44728;SDS011;30457;53.590;9.922;2022-08-02T01:59:54;1.15;;;0.70;;
44728;SDS011;30457;53.590;9.922;2022-08-02T02:04:23;1.10;;;0.80;;
44728;SDS011;30457;53.590;9.922;2022-08-02T02:08:50;3.28;;;1.13;;
44728;SDS011;30457;53.590;9.922;2022-08-02T02:13:17;2.80;;;0.95;;
44728;SDS011;30457;53.590;9.922;2022-08-02T02:17:45;2.75;;;0.93;;
44728;SDS011;30457;53.590;9.922;2022-08-02T02:22:13;2.35;;;0.82;;
44728;SDS011;30457;53.590;9.922;2022-08-02T02:26:39;3.22;;;1.00;;
44728;SDS011;30457;53.590;9.922;2022-08-02T02:31:09;1.02;;;0.80;;
44728;SDS011;30457;53.590;9.922;2022-08-02T02:35:37;5.38;;;1.33;;
44728;SDS011;30457;53.590;9.922;2022-08-02T02:40:04;2.22;;;1.08;;
44728;SDS011;30457;53.590;9.922;2022-08-02T02:44:32;2.67;;;0.90;;
44728;SDS011;30457;53.590;9.922;2022-08-02T02:48:59;4.22;;;1.10;;
44728;SDS011;30457;53.590;9.922;2022-08-02T02:53:25;3.30;;;1.10;;
44728;SDS011;30457;53.590;9.922;2022-08-02T02:57:51;2.38;;;1.08;;
44728;SDS011;30457;53.590;9.922;2022-08-02T03:02:18;2.63;;;1.02;;
44728;SDS011;30457;53.590;9.922;2022-08-02T03:06:44;3.40;;;1.58;;
44728;SDS011;30457;53.590;9.922;2022-08-02T03:11:10;2.88;;;0.90;;
44728;SDS011;30457;53.590;9.922;2022-08-02T03:15:37;3.17;;;1.15;;
44728;SDS011;30457;53.590;9.922;2022-08-02T03:20:06;1.98;;;0.90;;
44728;SDS011;30457;53.590;9.922;2022-08-02T03:24:33;2.83;;;0.85;;
44728;SDS011;30457;53.590;9.922;2022-08-02T03:28:58;2.65;;;1.00;;
44728;SDS011;30457;53.590;9.922;2022-08-02T03:33:24;2.20;;;1.00;;
44728;SDS011;30457;53.590;9.922;2022-08-02T03:37:53;2.67;;;1.17;;
44728;SDS011;30457;53.590;9.922;2022-08-02T03:42:21;4.22;;;0.93;;
44728;SDS011;30457;53.590;9.922;2022-08-02T03:46:47;1.67;;;0.90;;
44728;SDS011;30457;53.590;9.922;2022-08-02T03:51:13;3.22;;;1.40;;
44728;SDS011;30457;53.590;9.922;2022-08-02T03:55:39;2.53;;;1.95;;
44728;SDS011;30457;53.590;9.922;2022-08-02T04:00:06;2.85;;;1.58;;
44728;SDS011;30457;53.590;9.922;2022-08-02T04:04:37;2.72;;;1.35;;
44728;SDS011;30457;53.590;9.922;2022-08-02T04:09:03;1.95;;;1.13;;
44728;SDS011;30457;53.590;9.922;2022-08-02T04:13:30;5.10;;;1.48;;
44728;SDS011;30457;53.590;9.922;2022-08-02T04:17:58;3.33;;;1.23;;
44728;SDS011;30457;53.590;9.922;2022-08-02T04:22:25;4.93;;;1.88;;
44728;SDS011;30457;53.590;9.922;2022-08-02T04:26:55;2.20;;;1.20;;
44728;SDS011;30457;53.590;9.922;2022-08-02T04:31:21;3.95;;;1.33;;
44728;SDS011;30457;53.590;9.922;2022-08-02T04:35:47;1.10;;;1.00;;
44728;SDS011;30457;53.590;9.922;2022-08-02T04:40:13;6.40;;;1.67;;
44728;SDS011;30457;53.590;9.922;2022-08-02T04:44:39;6.55;;;1.10;;
44728;SDS011;30457;53.590;9.922;2022-08-02T04:49:05;3.17;;;1.92;;
44728;SDS011;30457;53.590;9.922;2022-08-02T04:53:31;3.88;;;1.33;;
44728;SDS011;30457;53.590;9.922;2022-08-02T04:57:56;2.03;;;1.55;;
44728;SDS011;30457;53.590;9.922;2022-08-02T05:02:22;3.90;;;1.48;;
44728;SDS011;30457;53.590;9.922;2022-08-02T05:06:48;4.70;;;1.67;;
44728;SDS011;30457;53.590;9.922;2022-08-02T05:11:13;2.42;;;2.22;;
44728;SDS011;30457;53.590;9.922;2022-08-02T05:15:39;6.50;;;1.83;;
44728;SDS011;30457;53.590;9.922;2022-08-02T05:20:05;8.20;;;1.90;;
44728;SDS011;30457;53.590;9.922;2022-08-02T05:24:31;4.38;;;1.70;;
44728;SDS011;30457;53.590;9.922;2022-08-02T05:28:56;7.10;;;1.83;;
44728;SDS011;30457;53.590;9.922;2022-08-02T05:33:22;6.30;;;1.70;;
44728;SDS011;30457;53.590;9.922;2022-08-02T05:37:48;6.28;;;1.80;;
44728;SDS011;30457;53.590;9.922;2022-08-02T05:42:14;3.63;;;1.23;;
44728;SDS011;30457;53.590;9.922;2022-08-02T05:46:40;3.13;;;1.60;;
44728;SDS011;30457;53.590;9.922;2022-08-02T05:51:09;5.03;;;1.73;;
44728;SDS011;30457;53.590;9.922;2022-08-02T05:55:39;7.50;;;2.17;;
44728;SDS011;30457;53.590;9.922;2022-08-02T06:00:11;7.15;;;1.60;;
44728;SDS011;30457;53.590;9.922;2022-08-02T06:04:46;7.55;;;1.63;;
44728;SDS011;30457;53.590;9.922;2022-08-02T06:09:29;6.05;;;1.58;;
44728;SDS011;30457;53.590;9.922;2022-08-02T06:13:55;4.53;;;1.50;;
44728;SDS011;30457;53.590;9.922;2022-08-02T06:18:21;3.72;;;1.23;;
44728;SDS011;30457;53.590;9.922;2022-08-02T06:22:47;16.67;;;3.13;;
44728;SDS011;30457;53.590;9.922;2022-08-02T06:27:14;10.68;;;1.48;;
44728;SDS011;30457;53.590;9.922;2022-08-02T06:31:40;5.70;;;1.45;;
44728;SDS011;30457;53.590;9.922;2022-08-02T06:40:35;9.27;;;1.75;;
44728;SDS011;30457;53.590;9.922;2022-08-02T06:45:08;4.15;;;1.13;;
44728;SDS011;30457;53.590;9.922;2022-08-02T06:49:34;6.28;;;1.38;;
44728;SDS011;30457;53.590;9.922;2022-08-02T06:53:59;3.58;;;1.40;;
44728;SDS011;30457;53.590;9.922;2022-08-02T06:58:25;4.53;;;1.70;;
44728;SDS011;30457;53.590;9.922;2022-08-02T07:02:50;8.70;;;1.65;;
44728;SDS011;30457;53.590;9.922;2022-08-02T07:07:16;3.55;;;1.13;;
44728;SDS011;30457;53.590;9.922;2022-08-02T07:11:42;5.70;;;1.60;;
44728;SDS011;30457;53.590;9.922;2022-08-02T07:16:07;4.30;;;1.48;;
44728;SDS011;30457;53.590;9.922;2022-08-02T07:20:33;4.57;;;1.08;;
44728;SDS011;30457;53.590;9.922;2022-08-02T07:24:58;2.88;;;1.10;;
44728;SDS011;30457;53.590;9.922;2022-08-02T07:29:24;5.20;;;1.17;;
44728;SDS011;30457;53.590;9.922;2022-08-02T07:33:49;8.27;;;1.42;;
44728;SDS011;30457;53.590;9.922;2022-08-02T07:38:15;6.65;;;1.20;;
44728;SDS011;30457;53.590;9.922;2022-08-02T07:42:41;5.95;;;1.50;;
44728;SDS011;30457;53.590;9.922;2022-08-02T07:47:07;3.38;;;1.38;;
44728;SDS011;30457;53.590;9.922;2022-08-02T07:51:33;4.07;;;1.05;;
44728;SDS011;30457;53.590;9.922;2022-08-02T07:55:59;5.28;;;1.35;;
44728;SDS011;30457;53.590;9.922;2022-08-02T08:00:25;5.28;;;1.30;;
44728;SDS011;30457;53.590;9.922;2022-08-02T08:04:51;5.68;;;1.02;;
44728;SDS011;30457;53.590;9.922;2022-08-02T08:09:17;5.15;;;1.70;;
44728;SDS011;30457;53.590;9.922;2022-08-02T08:13:44;2.30;;;1.10;;
44728;SDS011;30457;53.590;9.922;2022-08-02T08:18:09;2.67;;;0.85;;
44728;SDS011;30457;53.590;9.922;2022-08-02T08:22:36;4.65;;;1.00;;
44728;SDS011;30457;53.590;9.922;2022-08-02T08:27:03;2.70;;;0.93;;
44728;SDS011;30457;53.590;9.922;2022-08-02T08:31:29;3.63;;;1.05;;
44728;SDS011;30457;53.590;9.922;2022-08-02T08:35:55;5.88;;;1.20;;
44728;SDS011;30457;53.590;9.922;2022-08-02T08:40:20;6.10;;;1.40;;
44728;SDS011;30457;53.590;9.922;2022-08-02T08:44:48;4.32;;;0.90;;
44728;SDS011;30457;53.590;9.922;2022-08-02T08:49:17;2.97;;;1.00;;
44728;SDS011;30457;53.590;9.922;2022-08-02T08:53:55;5.72;;;1.58;;
44728;SDS011;30457;53.590;9.922;2022-08-02T08:58:26;3.33;;;1.13;;
44728;SDS011;30457;53.590;9.922;2022-08-02T09:02:51;4.68;;;1.33;;
44728;SDS011;30457;53.590;9.922;2022-08-02T09:07:17;3.33;;;1.30;;
44728;SDS011;30457;53.590;9.922;2022-08-02T09:11:43;1.70;;;1.15;;
44728;SDS011;30457;53.590;9.922;2022-08-02T09:16:08;4.75;;;1.08;;
44728;SDS011;30457;53.590;9.922;2022-08-02T09:20:34;3.05;;;0.85;;
44728;SDS011;30457;53.590;9.922;2022-08-02T09:25:16;4.85;;;1.60;;
44728;SDS011;30457;53.590;9.922;2022-08-02T09:29:45;6.60;;;1.50;;
44728;SDS011;30457;53.590;9.922;2022-08-02T09:34:15;2.63;;;1.13;;
44728;SDS011;30457;53.590;9.922;2022-08-02T09:39:00;6.00;;;1.00;;
44728;SDS011;30457;53.590;9.922;2022-08-02T09:43:40;3.10;;;1.10;;
44728;SDS011;30457;53.590;9.922;2022-08-02T09:48:08;2.95;;;0.98;;
44728;SDS011;30457;53.590;9.922;2022-08-02T09:52:34;5.03;;;1.10;;
44728;SDS011;30457;53.590;9.922;2022-08-02T09:57:00;2.35;;;1.20;;
44728;SDS011;30457;53.590;9.922;2022-08-02T10:01:29;4.15;;;1.00;;
44728;SDS011;30457;53.590;9.922;2022-08-02T10:05:57;1.02;;;0.80;;
44728;SDS011;30457;53.590;9.922;2022-08-02T10:10:23;3.38;;;1.10;;
44728;SDS011;30457;53.590;9.922;2022-08-02T10:14:49;4.22;;;0.88;;
44728;SDS011;30457;53.590;9.922;2022-08-02T10:19:16;6.10;;;1.15;;
44728;SDS011;30457;53.590;9.922;2022-08-02T10:23:43;2.97;;;1.15;;
44728;SDS011;30457;53.590;9.922;2022-08-02T10:28:09;8.15;;;1.00;;
44728;SDS011;30457;53.590;9.922;2022-08-02T10:32:42;4.07;;;0.85;;
44728;SDS011;30457;53.590;9.922;2022-08-02T10:37:09;3.92;;;1.17;;
44728;SDS011;30457;53.590;9.922;2022-08-02T10:41:50;4.05;;;1.08;;
44728;SDS011;30457;53.590;9.922;2022-08-02T10:55:11;2.78;;;1.25;;
44728;SDS011;30457;53.590;9.922;2022-08-02T10:59:38;4.00;;;0.82;;
44728;SDS011;30457;53.590;9.922;2022-08-02T11:04:03;2.00;;;0.90;;
44728;SDS011;30457;53.590;9.922;2022-08-02T11:08:29;4.82;;;0.80;;
44728;SDS011;30457;53.590;9.922;2022-08-02T11:13:00;2.30;;;0.80;;
44728;SDS011;30457;53.590;9.922;2022-08-02T11:22:18;4.78;;;1.13;;
44728;SDS011;30457;53.590;9.922;2022-08-02T11:26:43;2.65;;;0.90;;
44728;SDS011;30457;53.590;9.922;2022-08-02T11:31:09;1.85;;;0.80;;
44728;SDS011;30457;53.590;9.922;2022-08-02T11:35:37;6.32;;;0.90;;
44728;SDS011;30457;53.590;9.922;2022-08-02T11:40:04;2.38;;;1.08;;
44728;SDS011;30457;53.590;9.922;2022-08-02T11:44:38;5.15;;;0.90;;
44728;SDS011;30457;53.590;9.922;2022-08-02T11:49:13;2.85;;;1.00;;
44728;SDS011;30457;53.590;9.922;2022-08-02T11:53:51;4.75;;;0.98;;
44728;SDS011;30457;53.590;9.922;2022-08-02T11:58:18;2.92;;;1.00;;
44728;SDS011;30457;53.590;9.922;2022-08-02T12:02:44;2.38;;;0.98;;
44728;SDS011;30457;53.590;9.922;2022-08-02T12:07:12;4.85;;;1.10;;
44728;SDS011;30457;53.590;9.922;2022-08-02T12:11:37;1.10;;;0.75;;
44728;SDS011;30457;53.590;9.922;2022-08-02T12:16:08;4.35;;;1.30;;
44728;SDS011;30457;53.590;9.922;2022-08-02T12:20:55;6.95;;;1.17;;
44728;SDS011;30457;53.590;9.922;2022-08-02T12:25:21;1.85;;;0.90;;
44728;SDS011;30457;53.590;9.922;2022-08-02T12:29:47;2.53;;;1.05;;
44728;SDS011;30457;53.590;9.922;2022-08-02T12:34:13;1.58;;;1.02;;
44728;SDS011;30457;53.590;9.922;2022-08-02T12:38:54;2.65;;;1.40;;
44728;SDS011;30457;53.590;9.922;2022-08-02T12:43:23;2.45;;;1.10;;
44728;SDS011;30457;53.590;9.922;2022-08-02T12:47:50;3.70;;;1.75;;
44728;SDS011;30457;53.590;9.922;2022-08-02T12:52:18;5.85;;;1.00;;
44728;SDS011;30457;53.590;9.922;2022-08-02T12:56:45;3.08;;;1.08;;
44728;SDS011;30457;53.590;9.922;2022-08-02T13:01:11;4.22;;;0.90;;
44728;SDS011;30457;53.590;9.922;2022-08-02T13:05:45;1.83;;;0.90;;
44728;SDS011;30457;53.590;9.922;2022-08-02T13:10:11;2.67;;;1.00;;
44728;SDS011;30457;53.590;9.922;2022-08-02T13:14:36;4.15;;;1.05;;
44728;SDS011;30457;53.590;9.922;2022-08-02T13:19:02;2.58;;;1.13;;
44728;SDS011;30457;53.590;9.922;2022-08-02T13:23:28;1.95;;;0.57;;
44728;SDS011;30457;53.590;9.922;2022-08-02T13:27:53;1.27;;;0.80;;
44728;SDS011;30457;53.590;9.922;2022-08-02T13:32:19;1.35;;;0.90;;
44728;SDS011;30457;53.590;9.922;2022-08-02T13:36:45;2.28;;;0.93;;
44728;SDS011;30457;53.590;9.922;2022-08-02T13:41:10;5.57;;;1.08;;
44728;SDS011;30457;53.590;9.922;2022-08-02T13:45:37;7.22;;;1.27;;
44728;SDS011;30457;53.590;9.922;2022-08-02T13:50:03;1.02;;;0.73;;
44728;SDS011;30457;53.590;9.922;2022-08-02T13:54:28;4.78;;;1.70;;
44728;SDS011;30457;53.590;9.922;2022-08-02T13:58:54;3.20;;;1.00;;
44728;SDS011;30457;53.590;9.922;2022-08-02T14:03:20;4.50;;;1.00;;
44728;SDS011;30457;53.590;9.922;2022-08-02T14:07:45;2.97;;;1.00;;
44728;SDS011;30457;53.590;9.922;2022-08-02T14:12:11;2.72;;;1.00;;
44728;SDS011;30457;53.590;9.922;2022-08-02T14:16:37;2.30;;;1.02;;
44728;SDS011;30457;53.590;9.922;2022-08-02T14:21:02;0.90;;;0.85;;
44728;SDS011;30457;53.590;9.922;2022-08-02T14:25:30;2.60;;;1.15;;
44728;SDS011;30457;53.590;9.922;2022-08-02T14:29:56;2.45;;;1.20;;
44728;SDS011;30457;53.590;9.922;2022-08-02T14:34:22;3.40;;;1.17;;
44728;SDS011;30457;53.590;9.922;2022-08-02T14:38:48;6.50;;;0.93;;
44728;SDS011;30457;53.590;9.922;2022-08-02T14:43:14;2.97;;;1.67;;
44728;SDS011;30457;53.590;9.922;2022-08-02T14:47:59;1.80;;;0.98;;
44728;SDS011;30457;53.590;9.922;2022-08-02T14:52:25;3.75;;;1.00;;
44728;SDS011;30457;53.590;9.922;2022-08-02T14:56:51;4.80;;;1.30;;
44728;SDS011;30457;53.590;9.922;2022-08-02T15:01:16;1.25;;;1.00;;
44728;SDS011;30457;53.590;9.922;2022-08-02T15:05:42;2.13;;;1.10;;
44728;SDS011;30457;53.590;9.922;2022-08-02T15:10:07;4.07;;;1.38;;
44728;SDS011;30457;53.590;9.922;2022-08-02T15:14:33;5.45;;;1.50;;
44728;SDS011;30457;53.590;9.922;2022-08-02T15:23:35;3.05;;;0.82;;
44728;SDS011;30457;53.590;9.922;2022-08-02T15:28:02;4.50;;;1.83;;
44728;SDS011;30457;53.590;9.922;2022-08-02T15:32:30;1.30;;;1.20;;
44728;SDS011;30457;53.590;9.922;2022-08-02T15:36:56;2.72;;;1.13;;
44728;SDS011;30457;53.590;9.922;2022-08-02T15:41:22;1.10;;;1.00;;
44728;SDS011;30457;53.590;9.922;2022-08-02T15:45:47;1.65;;;1.05;;
44728;SDS011;30457;53.590;9.922;2022-08-02T15:50:13;3.55;;;1.10;;
44728;SDS011;30457;53.590;9.922;2022-08-02T15:54:38;1.77;;;1.35;;
44728;SDS011;30457;53.590;9.922;2022-08-02T15:59:04;1.50;;;1.13;;
44728;SDS011;30457;53.590;9.922;2022-08-02T16:03:30;1.88;;;1.10;;
44728;SDS011;30457;53.590;9.922;2022-08-02T16:07:56;1.80;;;1.10;;
44728;SDS011;30457;53.590;9.922;2022-08-02T16:12:21;1.58;;;1.15;;
44728;SDS011;30457;53.590;9.922;2022-08-02T16:16:47;2.13;;;1.30;;
44728;SDS011;30457;53.590;9.922;2022-08-02T16:21:12;4.35;;;1.20;;
44728;SDS011;30457;53.590;9.922;2022-08-02T16:25:38;3.35;;;1.20;;
44728;SDS011;30457;53.590;9.922;2022-08-02T16:30:04;1.83;;;1.50;;
44728;SDS011;30457;53.590;9.922;2022-08-02T16:34:30;2.85;;;1.50;;
44728;SDS011;30457;53.590;9.922;2022-08-02T16:38:56;2.88;;;1.40;;
44728;SDS011;30457;53.590;9.922;2022-08-02T16:43:21;3.15;;;1.27;;
44728;SDS011;30457;53.590;9.922;2022-08-02T16:47:47;1.20;;;1.10;;
44728;SDS011;30457;53.590;9.922;2022-08-02T16:52:13;2.03;;;1.30;;
44728;SDS011;30457;53.590;9.922;2022-08-02T16:56:39;3.60;;;1.40;;
44728;SDS011;30457;53.590;9.922;2022-08-02T17:01:06;1.52;;;1.40;;
44728;SDS011;30457;53.590;9.922;2022-08-02T17:05:31;1.90;;;1.20;;
44728;SDS011;30457;53.590;9.922;2022-08-02T17:09:57;1.90;;;1.17;;
44728;SDS011;30457;53.590;9.922;2022-08-02T17:14:23;4.18;;;1.25;;
44728;SDS011;30457;53.590;9.922;2022-08-02T17:18:49;2.45;;;1.50;;
44728;SDS011;30457;53.590;9.922;2022-08-02T17:23:14;2.10;;;1.33;;
44728;SDS011;30457;53.590;9.922;2022-08-02T17:27:41;3.47;;;1.42;;
44728;SDS011;30457;53.590;9.922;2022-08-02T17:32:07;8.48;;;1.58;;
44728;SDS011;30457;53.590;9.922;2022-08-02T17:36:33;1.40;;;1.30;;
44728;SDS011;30457;53.590;9.922;2022-08-02T17:40:59;2.05;;;1.48;;
44728;SDS011;30457;53.590;9.922;2022-08-02T17:45:24;1.40;;;1.30;;
44728;SDS011;30457;53.590;9.922;2022-08-02T17:49:50;3.58;;;1.98;;
44728;SDS011;30457;53.590;9.922;2022-08-02T17:54:17;1.50;;;1.40;;
44728;SDS011;30457;53.590;9.922;2022-08-02T17:58:43;1.33;;;1.25;;
44728;SDS011;30457;53.590;9.922;2022-08-02T18:03:09;1.77;;;1.40;;
44728;SDS011;30457;53.590;9.922;2022-08-02T18:07:34;1.23;;;1.10;;
44728;SDS011;30457;53.590;9.922;2022-08-02T18:12:00;1.52;;;1.30;;
44728;SDS011;30457;53.590;9.922;2022-08-02T18:16:26;1.33;;;1.10;;
44728;SDS011;30457;53.590;9.922;2022-08-02T18:20:51;2.35;;;1.38;;
44728;SDS011;30457;53.590;9.922;2022-08-02T18:25:17;3.08;;;1.40;;
44728;SDS011;30457;53.590;9.922;2022-08-02T18:29:42;2.78;;;1.80;;
44728;SDS011;30457;53.590;9.922;2022-08-02T18:34:08;1.83;;;1.40;;
44728;SDS011;30457;53.590;9.922;2022-08-02T18:38:33;1.85;;;1.58;;
44728;SDS011;30457;53.590;9.922;2022-08-02T18:43:00;1.60;;;1.50;;
44728;SDS011;30457;53.590;9.922;2022-08-02T18:47:26;1.92;;;1.25;;
44728;SDS011;30457;53.590;9.922;2022-08-02T18:51:51;2.58;;;1.60;;
44728;SDS011;30457;53.590;9.922;2022-08-02T18:56:17;6.05;;;2.13;;
44728;SDS011;30457;53.590;9.922;2022-08-02T19:00:43;1.55;;;1.45;;
44728;SDS011;30457;53.590;9.922;2022-08-02T19:05:09;2.35;;;1.80;;
44728;SDS011;30457;53.590;9.922;2022-08-02T19:09:35;2.97;;;1.67;;
44728;SDS011;30457;53.590;9.922;2022-08-02T19:14:01;3.35;;;1.80;;
44728;SDS011;30457;53.590;9.922;2022-08-02T19:18:26;1.83;;;1.50;;
44728;SDS011;30457;53.590;9.922;2022-08-02T19:22:52;3.63;;;2.00;;
44728;SDS011;30457;53.590;9.922;2022-08-02T19:27:18;2.20;;;1.38;;
44728;SDS011;30457;53.590;9.922;2022-08-02T19:31:46;1.70;;;1.60;;
44728;SDS011;30457;53.590;9.922;2022-08-02T19:36:13;1.98;;;1.30;;
44728;SDS011;30457;53.590;9.922;2022-08-02T19:40:39;2.53;;;1.50;;
44728;SDS011;30457;53.590;9.922;2022-08-02T19:45:06;2.08;;;1.60;;
44728;SDS011;30457;53.590;9.922;2022-08-02T19:49:35;7.22;;;1.75;;
44728;SDS011;30457;53.590;9.922;2022-08-02T19:54:00;5.45;;;1.73;;
44728;SDS011;30457;53.590;9.922;2022-08-02T19:58:26;1.90;;;1.60;;
44728;SDS011;30457;53.590;9.922;2022-08-02T20:02:52;4.50;;;1.60;;
44728;SDS011;30457;53.590;9.922;2022-08-02T20:07:17;3.40;;;2.30;;
44728;SDS011;30457;53.590;9.922;2022-08-02T20:11:43;2.47;;;1.70;;
44728;SDS011;30457;53.590;9.922;2022-08-02T20:16:09;6.75;;;2.13;;
44728;SDS011;30457;53.590;9.922;2022-08-02T20:20:35;2.88;;;1.90;;
44728;SDS011;30457;53.590;9.922;2022-08-02T20:25:02;2.00;;;1.80;;
44728;SDS011;30457;53.590;9.922;2022-08-02T20:29:28;1.90;;;1.67;;
44728;SDS011;30457;53.590;9.922;2022-08-02T20:33:54;3.20;;;1.80;;
44728;SDS011;30457;53.590;9.922;2022-08-02T20:38:20;5.88;;;2.08;;
44728;SDS011;30457;53.590;9.922;2022-08-02T20:42:45;4.90;;;2.20;;
44728;SDS011;30457;53.590;9.922;2022-08-02T20:47:11;1.80;;;1.70;;
44728;SDS011;30457;53.590;9.922;2022-08-02T20:51:37;3.33;;;1.98;;
44728;SDS011;30457;53.590;9.922;2022-08-02T20:56:02;7.97;;;2.95;;
44728;SDS011;30457;53.590;9.922;2022-08-02T21:00:28;6.22;;;2.15;;
44728;SDS011;30457;53.590;9.922;2022-08-02T21:04:55;5.07;;;2.30;;
44728;SDS011;30457;53.590;9.922;2022-08-02T21:09:21;2.70;;;2.03;;
44728;SDS011;30457;53.590;9.922;2022-08-02T21:13:46;5.70;;;4.00;;
44728;SDS011;30457;53.590;9.922;2022-08-02T21:18:13;2.95;;;2.60;;
44728;SDS011;30457;53.590;9.922;2022-08-02T21:22:38;3.10;;;2.20;;
44728;SDS011;30457;53.590;9.922;2022-08-02T21:27:04;2.00;;;1.90;;
44728;SDS011;30457;53.590;9.922;2022-08-02T21:31:32;3.35;;;2.25;;
44728;SDS011;30457;53.590;9.922;2022-08-02T21:35:58;4.47;;;3.85;;
44728;SDS011;30457;53.590;9.922;2022-08-02T21:40:23;3.97;;;3.58;;
44728;SDS011;30457;53.590;9.922;2022-08-02T21:44:49;3.58;;;2.50;;
44728;SDS011;30457;53.590;9.922;2022-08-02T21:49:19;2.92;;;2.13;;
44728;SDS011;30457;53.590;9.922;2022-08-02T21:53:45;2.45;;;2.25;;
44728;SDS011;30457;53.590;9.922;2022-08-02T21:58:11;2.53;;;2.20;;
44728;SDS011;30457;53.590;9.922;2022-08-02T22:02:36;4.07;;;3.75;;
44728;SDS011;30457;53.590;9.922;2022-08-02T22:07:02;2.38;;;2.17;;
44728;SDS011;30457;53.590;9.922;2022-08-02T22:11:27;2.60;;;2.40;;
44728;SDS011;30457;53.590;9.922;2022-08-02T22:15:53;3.00;;;2.40;;
44728;SDS011;30457;53.590;9.922;2022-08-02T22:20:21;3.15;;;1.88;;
44728;SDS011;30457;53.590;9.922;2022-08-02T22:24:47;2.92;;;2.15;;
44728;SDS011;30457;53.590;9.922;2022-08-02T22:29:12;2.55;;;2.05;;
44728;SDS011;30457;53.590;9.922;2022-08-02T22:33:38;5.18;;;2.50;;
44728;SDS011;30457;53.590;9.922;2022-08-02T22:38:23;2.23;;;2.03;;
44728;SDS011;30457;53.590;9.922;2022-08-02T22:42:49;2.22;;;2.08;;
44728;SDS011;30457;53.590;9.922;2022-08-02T22:47:14;2.90;;;2.25;;
44728;SDS011;30457;53.590;9.922;2022-08-02T22:51:40;2.45;;;2.25;;
44728;SDS011;30457;53.590;9.922;2022-08-02T22:56:05;2.10;;;1.90;;
44728;SDS011;30457;53.590;9.922;2022-08-02T23:00:31;5.18;;;2.47;;
44728;SDS011;30457;53.590;9.922;2022-08-02T23:04:57;2.47;;;2.28;;
44728;SDS011;30457;53.590;9.922;2022-08-02T23:09:22;2.75;;;2.35;;
44728;SDS011;30457;53.590;9.922;2022-08-02T23:13:48;3.47;;;2.40;;
44728;SDS011;30457;53.590;9.922;2022-08-02T23:18:13;5.88;;;3.08;;
44728;SDS011;30457;53.590;9.922;2022-08-02T23:22:57;2.40;;;2.20;;
44728;SDS011;30457;53.590;9.922;2022-08-02T23:27:23;2.88;;;2.65;;
44728;SDS011;30457;53.590;9.922;2022-08-02T23:31:49;2.60;;;2.40;;
44728;SDS011;30457;53.590;9.922;2022-08-02T23:36:14;3.35;;;2.50;;
44728;SDS011;30457;53.590;9.922;2022-08-02T23:40:40;2.67;;;2.42;;
44728;SDS011;30457;53.590;9.922;2022-08-02T23:45:05;2.65;;;2.45;;
44728;SDS011;30457;53.590;9.922;2022-08-02T23:49:31;2.53;;;2.33;;
44728;SDS011;30457;53.590;9.922;2022-08-02T23:53:57;5.38;;;2.67;;
44728;SDS011;30457;53.590;9.922;2022-08-02T23:58:22;3.35;;;3.05;;
